Time;durP1;ratioP1;P1;durP2;ratioP2;P2;SDS_P1;SDS_P2;PMS_P1;PMS_P2;Temp;Humidity;BMP_temperature;BMP_pressure;BME280_temperature;BME280_humidity;BME280_pressure;Samples;Min_cycle;Max_cycle;Signal;HPM_P1;HPM_P2
2022/03/11 00:00:39;;;;;;;23.27;10.30;;;-3.90;99.90;;;;;;4407649;32;20220;-72
2022/03/11 00:03:06;;;;;;;27.93;10.03;;;-3.90;99.90;;;;;;4407823;32;20175;-71
2022/03/11 00:05:33;;;;;;;25.57;9.97;;;-3.90;99.90;;;;;;4409746;32;20150;-72
2022/03/11 00:08:00;;;;;;;21.47;9.53;;;-3.90;99.90;;;;;;4407960;32;20201;-71
2022/03/11 00:10:27;;;;;;;24.67;9.43;;;-4.00;99.90;;;;;;4409491;32;20224;-71
2022/03/11 00:12:54;;;;;;;22.07;9.10;;;-4.00;99.90;;;;;;4408820;32;20217;-71
2022/03/11 00:15:21;;;;;;;24.77;10.07;;;-4.00;99.90;;;;;;4409737;32;20202;-71
2022/03/11 00:17:48;;;;;;;25.07;9.20;;;-4.00;99.90;;;;;;4410658;32;20159;-71
2022/03/11 00:20:21;;;;;;;22.63;9.70;;;-4.00;99.90;;;;;;4409467;32;20205;-71
2022/03/11 00:22:49;;;;;;;24.03;9.43;;;-4.00;99.90;;;;;;4408945;32;20556;-71
2022/03/11 00:25:16;;;;;;;26.30;10.00;;;-3.90;99.90;;;;;;4407738;32;20525;-71
2022/03/11 00:27:44;;;;;;;25.87;10.20;;;-3.90;99.90;;;;;;4409276;32;20191;-70
2022/03/11 00:30:12;;;;;;;22.57;9.20;;;-4.00;99.90;;;;;;4408376;32;20250;-70
2022/03/11 00:32:40;;;;;;;23.33;9.20;;;-4.00;99.90;;;;;;4409094;32;20211;-71
2022/03/11 00:35:09;;;;;;;26.87;9.50;;;-4.00;99.90;;;;;;4409737;32;20144;-71
2022/03/11 00:37:40;;;;;;;20.67;9.10;;;-4.00;99.90;;;;;;4409049;32;20200;-71
2022/03/11 00:40:08;;;;;;;20.47;9.47;;;-4.00;99.90;;;;;;4407891;32;20195;-70
2022/03/11 00:42:35;;;;;;;19.80;8.93;;;-4.00;99.90;;;;;;4409385;32;20163;-71
2022/03/11 00:45:02;;;;;;;24.60;9.50;;;-4.00;99.90;;;;;;4407651;32;20173;-71
2022/03/11 00:47:29;;;;;;;23.47;9.90;;;-4.10;99.90;;;;;;4408961;32;20272;-71
2022/03/11 00:49:56;;;;;;;26.13;9.77;;;-4.10;99.90;;;;;;4408443;32;20220;-71
2022/03/11 00:52:23;;;;;;;24.80;9.80;;;-4.10;99.90;;;;;;4407045;32;20250;-71
2022/03/11 00:54:50;;;;;;;27.93;10.27;;;-4.10;99.90;;;;;;4408526;32;20194;-71
2022/03/11 00:57:17;;;;;;;24.80;10.07;;;-4.20;99.90;;;;;;4406856;32;20567;-70
2022/03/11 00:59:44;;;;;;;22.40;9.73;;;-4.20;99.90;;;;;;4408107;32;20288;-70
2022/03/11 01:02:10;;;;;;;26.50;10.30;;;-4.20;99.90;;;;;;4409224;32;20178;-71
2022/03/11 01:04:38;;;;;;;24.77;9.63;;;-4.20;99.90;;;;;;4407157;32;20198;-71
2022/03/11 01:07:04;;;;;;;25.93;11.27;;;-4.20;99.90;;;;;;4408433;32;20197;-72
2022/03/11 01:09:31;;;;;;;31.07;10.77;;;-4.20;99.90;;;;;;4408823;32;20183;-71
2022/03/11 01:11:58;;;;;;;27.53;11.03;;;-4.20;99.90;;;;;;4408853;32;20421;-71
2022/03/11 01:14:25;;;;;;;28.03;11.37;;;-4.20;99.90;;;;;;4408813;32;20206;-71
2022/03/11 01:16:52;;;;;;;27.40;10.50;;;-4.20;99.90;;;;;;4407582;32;20242;-71
2022/03/11 01:19:19;;;;;;;30.17;10.97;;;-4.30;99.90;;;;;;4408562;32;20242;-71
2022/03/11 01:21:46;;;;;;;27.13;10.87;;;-4.30;99.90;;;;;;4408856;32;20175;-72
2022/03/11 01:24:13;;;;;;;31.77;11.80;;;-4.40;99.90;;;;;;4400319;32;20621;-72
2022/03/11 01:26:39;;;;;;;32.20;10.97;;;-4.40;99.90;;;;;;4393230;32;20563;-72
2022/03/11 01:29:06;;;;;;;29.17;11.30;;;-4.40;99.90;;;;;;4393106;32;20198;-72
2022/03/11 01:31:33;;;;;;;29.87;11.77;;;-4.40;99.90;;;;;;4391762;32;20234;-71
2022/03/11 01:34:00;;;;;;;28.53;10.70;;;-4.40;99.90;;;;;;4393526;32;20192;-71
2022/03/11 01:36:27;;;;;;;27.40;11.00;;;-4.50;99.90;;;;;;4393476;32;20210;-72
2022/03/11 01:38:54;;;;;;;29.40;11.60;;;-4.50;99.90;;;;;;4393118;32;20198;-71
2022/03/11 01:41:21;;;;;;;28.77;11.10;;;-4.50;99.90;;;;;;4391488;32;20203;-72
2022/03/11 01:44:00;;;;;;;28.00;10.80;;;-4.50;99.90;;;;;;4393071;32;20560;-72
2022/03/11 01:46:28;;;;;;;26.97;10.40;;;-4.50;99.90;;;;;;4391449;32;20195;-72
2022/03/11 01:48:57;;;;;;;28.20;11.00;;;-4.60;99.90;;;;;;4393396;32;20214;-72
2022/03/11 01:51:25;;;;;;;29.03;10.70;;;-4.60;99.90;;;;;;4392976;32;20179;-72
2022/03/11 01:53:52;;;;;;;26.37;10.90;;;-4.70;99.90;;;;;;4394383;32;20179;-72
2022/03/11 01:56:20;;;;;;;27.43;10.47;;;-4.60;99.90;;;;;;4396061;32;20246;-71
2022/03/11 01:58:49;;;;;;;38.63;11.50;;;-4.70;99.90;;;;;;4395918;32;20210;-71
2022/03/11 02:01:21;;;;;;;27.93;11.03;;;-4.70;99.90;;;;;;4395861;32;20139;-71
2022/03/11 02:03:49;;;;;;;28.27;10.83;;;-4.70;99.90;;;;;;4396706;32;20200;-72
2022/03/11 02:06:17;;;;;;;31.10;11.10;;;-4.70;99.90;;;;;;4395006;32;20252;-72
2022/03/11 02:08:45;;;;;;;26.17;10.73;;;-4.70;99.90;;;;;;4396095;32;20234;-72
2022/03/11 02:11:12;;;;;;;30.03;12.07;;;-4.70;99.90;;;;;;4394902;32;20191;-72
2022/03/11 02:13:47;;;;;;;27.17;11.03;;;-4.80;99.90;;;;;;4395968;32;20214;-72
2022/03/11 02:16:15;;;;;;;29.57;12.03;;;-4.80;99.90;;;;;;4395637;32;20198;-72
2022/03/11 02:18:43;;;;;;;28.57;11.60;;;-4.80;99.90;;;;;;4395841;32;20286;-72
2022/03/11 02:21:10;;;;;;;29.90;11.47;;;-4.80;99.90;;;;;;4395820;32;20391;-71
2022/03/11 02:23:47;;;;;;;27.43;11.13;;;-4.80;99.90;;;;;;4394310;32;20183;-71
2022/03/11 02:26:15;;;;;;;29.93;11.50;;;-4.80;99.90;;;;;;4394856;32;20182;-72
2022/03/11 02:28:44;;;;;;;29.67;11.03;;;-4.90;99.90;;;;;;4395475;32;20242;-71
2022/03/11 02:31:11;;;;;;;30.83;11.57;;;-4.90;99.90;;;;;;4395308;32;20175;-71
2022/03/11 02:33:38;;;;;;;28.10;11.20;;;-5.00;99.90;;;;;;4396607;32;20178;-71
2022/03/11 02:36:06;;;;;;;27.90;11.13;;;-5.00;99.90;;;;;;4396583;32;20214;-70
2022/03/11 02:38:33;;;;;;;26.03;10.47;;;-5.00;99.90;;;;;;4393642;32;20194;-71
2022/03/11 02:41:00;;;;;;;26.93;10.37;;;-5.00;99.90;;;;;;4395577;32;20171;-71
2022/03/11 02:43:27;;;;;;;26.23;11.17;;;-5.10;99.90;;;;;;4395138;32;20273;-71
2022/03/11 02:45:54;;;;;;;25.30;10.70;;;-5.10;99.90;;;;;;4393877;32;20584;-71
2022/03/11 02:48:21;;;;;;;23.93;10.60;;;-5.10;99.90;;;;;;4396651;32;20147;-70
2022/03/11 02:50:47;;;;;;;23.97;9.43;;;-5.10;99.90;;;;;;4395397;32;20203;-71
2022/03/11 02:53:15;;;;;;;24.13;10.13;;;-5.10;99.90;;;;;;4394946;32;20195;-70
2022/03/11 02:55:41;;;;;;;24.70;9.90;;;-5.20;99.90;;;;;;4393268;32;20290;-71
2022/03/11 02:58:08;;;;;;;22.07;9.57;;;-5.20;99.90;;;;;;4394690;32;20199;-71
2022/03/11 03:00:35;;;;;;;24.23;9.73;;;-5.20;99.90;;;;;;4395819;32;20202;-71
2022/03/11 03:03:02;;;;;;;25.30;9.77;;;-5.20;99.90;;;;;;4394937;32;20171;-71
2022/03/11 03:05:30;;;;;;;23.67;9.80;;;-5.20;99.90;;;;;;4393458;32;20513;-72
2022/03/11 03:07:57;;;;;;;23.13;9.50;;;-5.20;99.90;;;;;;4393980;32;20202;-72
2022/03/11 03:10:24;;;;;;;27.10;10.47;;;-5.20;99.90;;;;;;4395982;32;20207;-72
2022/03/11 03:12:51;;;;;;;26.93;11.00;;;-5.20;99.90;;;;;;4394753;32;20199;-71
2022/03/11 03:15:17;;;;;;;30.63;11.27;;;-5.20;99.90;;;;;;4394313;32;20179;-71
2022/03/11 03:17:44;;;;;;;27.93;11.00;;;-5.20;99.90;;;;;;4394333;32;20175;-70
2022/03/11 03:20:11;;;;;;;29.93;10.50;;;-5.20;99.90;;;;;;4394831;32;20247;-70
2022/03/11 03:22:38;;;;;;;30.87;11.33;;;-5.30;99.90;;;;;;4394791;32;20195;-70
2022/03/11 03:25:06;;;;;;;25.57;11.17;;;-5.30;99.90;;;;;;4391456;32;20201;-70
2022/03/11 03:27:32;;;;;;;23.30;10.17;;;-5.30;99.90;;;;;;4394679;32;20544;-71
2022/03/11 03:29:59;;;;;;;25.13;10.70;;;-5.40;99.90;;;;;;4394423;32;20210;-70
2022/03/11 03:32:26;;;;;;;28.63;10.87;;;-5.40;99.90;;;;;;4393126;32;20219;-71
2022/03/11 03:34:53;;;;;;;24.37;10.83;;;-5.40;99.90;;;;;;4394589;32;20198;-72
2022/03/11 03:37:19;;;;;;;25.80;10.93;;;-5.40;99.90;;;;;;4392801;32;20501;-70
2022/03/11 03:39:46;;;;;;;28.17;11.23;;;-5.40;99.90;;;;;;4394524;32;20287;-72
2022/03/11 03:42:13;;;;;;;25.70;9.93;;;-5.40;99.90;;;;;;4395031;32;20195;-71
2022/03/11 03:44:40;;;;;;;26.50;10.50;;;-5.40;99.90;;;;;;4396252;32;20213;-70
2022/03/11 03:47:07;;;;;;;24.03;9.30;;;-5.50;99.90;;;;;;4396719;32;20588;-70
2022/03/11 03:49:34;;;;;;;24.00;9.83;;;-5.50;99.90;;;;;;4396226;32;20247;-71
2022/03/11 03:52:01;;;;;;;26.00;9.83;;;-5.50;99.90;;;;;;4395135;32;20171;-70
2022/03/11 03:54:31;;;;;;;24.23;9.87;;;-5.50;99.90;;;;;;4396618;32;20171;-70
2022/03/11 03:56:58;;;;;;;23.30;9.60;;;-5.50;99.90;;;;;;4395076;32;20213;-71
2022/03/11 03:59:25;;;;;;;24.37;9.60;;;-5.50;99.90;;;;;;4408385;32;20207;-71
2022/03/11 04:01:52;;;;;;;28.93;9.93;;;-5.50;99.90;;;;;;4395422;32;20187;-71
2022/03/11 04:04:19;;;;;;;24.87;9.50;;;-5.50;99.90;;;;;;4396894;32;20454;-70
2022/03/11 04:06:46;;;;;;;25.00;10.17;;;-5.60;99.90;;;;;;4395598;32;20226;-72
2022/03/11 04:09:13;;;;;;;23.90;9.37;;;-5.60;99.90;;;;;;4395282;32;20247;-71
2022/03/11 04:11:42;;;;;;;27.77;10.07;;;-5.60;99.90;;;;;;4396639;32;20199;-72
2022/03/11 04:14:09;;;;;;;25.63;10.17;;;-5.60;99.90;;;;;;4410320;32;20489;-71
2022/03/11 04:16:36;;;;;;;24.70;9.80;;;-5.60;99.90;;;;;;4409931;32;20186;-71
2022/03/11 04:19:03;;;;;;;23.20;9.73;;;-5.60;99.90;;;;;;4396621;32;20198;-70
2022/03/11 04:21:30;;;;;;;33.03;10.50;;;-5.60;99.90;;;;;;4396421;32;20214;-72
2022/03/11 04:23:57;;;;;;;23.83;9.47;;;-5.60;99.90;;;;;;4395144;32;20175;-70
2022/03/11 04:26:24;;;;;;;27.23;10.73;;;-5.70;99.90;;;;;;4394871;32;20499;-71
2022/03/11 04:28:51;;;;;;;27.27;10.37;;;-5.70;99.90;;;;;;4396259;32;20250;-70
2022/03/11 04:31:17;;;;;;;28.03;11.17;;;-5.70;99.90;;;;;;4396532;32;20175;-70
2022/03/11 04:33:44;;;;;;;28.07;10.87;;;-5.70;99.90;;;;;;4394962;32;20183;-70
2022/03/11 04:36:11;;;;;;;29.13;10.80;;;-5.70;99.90;;;;;;4394991;32;20238;-71
2022/03/11 04:38:38;;;;;;;24.97;10.37;;;-5.80;99.90;;;;;;4395035;32;20476;-70
2022/03/11 04:41:06;;;;;;;24.87;9.80;;;-5.70;99.90;;;;;;4410379;32;20146;-71
2022/03/11 04:43:33;;;;;;;25.93;10.30;;;-5.80;99.90;;;;;;4394634;32;20572;-71
2022/03/11 04:46:00;;;;;;;19.77;9.87;;;-5.80;99.90;;;;;;4395395;32;20448;-71
2022/03/11 04:48:27;;;;;;;26.63;10.03;;;-5.80;99.90;;;;;;4395933;32;20529;-71
2022/03/11 04:50:56;;;;;;;23.40;10.10;;;-5.90;99.90;;;;;;4395477;32;20191;-71
2022/03/11 04:53:23;;;;;;;24.57;10.23;;;-5.90;99.90;;;;;;4394783;32;20262;-71
2022/03/11 04:55:50;;;;;;;25.73;9.93;;;-5.90;99.90;;;;;;4408655;32;20509;-71
2022/03/11 04:58:17;;;;;;;27.63;10.17;;;-5.90;99.90;;;;;;4396309;32;20198;-71
2022/03/11 05:00:44;;;;;;;27.17;10.73;;;-5.90;99.90;;;;;;4395835;32;20580;-71
2022/03/11 05:03:11;;;;;;;27.73;10.57;;;-5.90;99.90;;;;;;4395092;32;20609;-71
2022/03/11 05:05:38;;;;;;;28.33;10.43;;;-5.90;99.90;;;;;;4396522;32;20398;-70
2022/03/11 05:08:05;;;;;;;29.40;10.63;;;-5.90;99.90;;;;;;4410138;32;20162;-71
2022/03/11 05:10:32;;;;;;;28.33;10.53;;;-5.90;99.90;;;;;;4394436;32;20179;-72
2022/03/11 05:12:59;;;;;;;29.03;10.20;;;-5.80;99.90;;;;;;4396019;32;20211;-72
2022/03/11 05:15:26;;;;;;;28.77;10.33;;;-5.90;99.90;;;;;;4409767;32;20470;-70
2022/03/11 05:17:53;;;;;;;27.87;10.20;;;-5.90;99.90;;;;;;4396043;32;20186;-71
2022/03/11 05:20:20;;;;;;;31.03;10.30;;;-5.90;99.90;;;;;;4394934;32;20175;-70
2022/03/11 05:22:47;;;;;;;26.83;10.03;;;-5.80;99.90;;;;;;4409533;32;20559;-70
2022/03/11 05:25:14;;;;;;;29.70;10.60;;;-5.80;99.90;;;;;;4394629;32;20214;-71
2022/03/11 05:27:41;;;;;;;27.57;10.87;;;-5.80;99.90;;;;;;4410772;32;20575;-70
2022/03/11 05:30:09;;;;;;;27.40;10.23;;;-5.80;99.90;;;;;;4398904;32;20237;-70
2022/03/11 05:32:44;;;;;;;28.83;10.73;;;-5.70;99.90;;;;;;4398823;32;20199;-72
2022/03/11 05:35:11;;;;;;;31.27;11.10;;;-5.70;99.90;;;;;;4398803;32;20167;-71
2022/03/11 05:37:38;;;;;;;24.67;10.03;;;-5.70;99.90;;;;;;4397365;32;20651;-72
2022/03/11 05:40:06;;;;;;;32.47;10.80;;;-5.60;99.90;;;;;;4397399;32;20182;-72
2022/03/11 05:42:32;;;;;;;31.13;10.77;;;-5.50;99.90;;;;;;4397331;32;20194;-71
2022/03/11 05:44:59;;;;;;;24.03;9.10;;;-5.40;99.90;;;;;;4398246;32;20241;-70
2022/03/11 05:47:26;;;;;;;26.50;9.50;;;-5.40;99.90;;;;;;4411158;32;20202;-70
2022/03/11 05:49:54;;;;;;;21.43;8.53;;;-5.40;99.90;;;;;;4411667;32;20223;-72
2022/03/11 05:52:22;;;;;;;23.53;8.30;;;-5.30;99.90;;;;;;4411762;32;20147;-71
2022/03/11 05:54:49;;;;;;;19.70;8.43;;;-5.30;99.90;;;;;;4396768;32;20234;-71
2022/03/11 05:57:16;;;;;;;25.00;8.73;;;-5.20;99.90;;;;;;4397980;32;20624;-71
2022/03/11 05:59:43;;;;;;;23.67;8.63;;;-5.20;99.90;;;;;;4397713;32;20430;-72
2022/03/11 06:02:09;;;;;;;21.57;9.17;;;-5.10;99.90;;;;;;4398670;32;20234;-72
2022/03/11 06:04:37;;;;;;;20.23;8.87;;;-5.00;99.90;;;;;;4410979;32;20208;-71
2022/03/11 06:07:05;;;;;;;19.87;8.90;;;-4.90;99.90;;;;;;4412659;32;20155;-72
2022/03/11 06:09:32;;;;;;;19.63;8.57;;;-4.80;99.90;;;;;;4411938;32;20437;-70
2022/03/11 06:11:58;;;;;;;23.87;9.00;;;-4.70;99.90;;;;;;4398229;32;20206;-71
2022/03/11 06:14:25;;;;;;;20.63;8.43;;;-4.70;99.90;;;;;;4410543;32;20165;-72
2022/03/11 06:16:52;;;;;;;19.77;8.40;;;-4.60;99.90;;;;;;4411935;32;20136;-72
2022/03/11 06:19:19;;;;;;;16.90;7.80;;;-4.60;99.90;;;;;;4398076;32;20332;-71
2022/03/11 06:21:46;;;;;;;19.03;8.57;;;-4.50;99.90;;;;;;4398160;32;20191;-71
2022/03/11 06:24:16;;;;;;;19.77;8.13;;;-4.40;99.90;;;;;;4410844;32;20459;-72
2022/03/11 06:26:43;;;;;;;17.90;8.13;;;-4.40;99.90;;;;;;4396932;32;20187;-72
2022/03/11 06:29:10;;;;;;;19.80;8.13;;;-4.30;99.90;;;;;;4397994;32;20233;-72
2022/03/11 06:31:37;;;;;;;19.70;8.07;;;-4.20;99.90;;;;;;4398145;32;20215;-72
2022/03/11 06:34:05;;;;;;;20.83;8.30;;;-4.00;99.90;;;;;;4411900;32;20139;-72
2022/03/11 06:36:34;;;;;;;24.10;9.27;;;-3.80;99.90;;;;;;4396119;32;20191;-71
2022/03/11 06:39:01;;;;;;;18.97;7.77;;;-3.80;99.90;;;;;;4393980;32;20176;-72
2022/03/11 06:41:28;;;;;;;20.90;8.77;;;-3.80;99.90;;;;;;4397470;32;20233;-69
2022/03/11 06:43:57;;;;;;;17.47;7.70;;;-3.70;99.90;;;;;;4395593;32;20507;-72
2022/03/11 06:46:24;;;;;;;18.87;8.17;;;-3.60;99.90;;;;;;4396171;32;20222;-71
2022/03/11 06:48:51;;;;;;;18.53;8.33;;;-3.50;99.90;;;;;;4397667;32;20173;-72
2022/03/11 06:51:18;;;;;;;19.90;8.33;;;-3.50;99.90;;;;;;4396319;32;20214;-72
2022/03/11 06:53:44;;;;;;;18.87;7.50;;;-3.50;99.90;;;;;;4396144;32;20190;-72
2022/03/11 06:56:11;;;;;;;19.60;7.70;;;-3.40;99.90;;;;;;4397602;32;20188;-72
2022/03/11 06:58:38;;;;;;;17.50;7.70;;;-3.40;99.90;;;;;;4397766;32;20195;-72
2022/03/11 07:01:05;;;;;;;17.10;7.67;;;-3.30;99.90;;;;;;4411641;32;20165;-72
2022/03/11 07:03:33;;;;;;;20.80;7.70;;;-3.30;99.90;;;;;;4395515;32;20208;-72
2022/03/11 07:06:00;;;;;;;16.03;7.10;;;-3.20;99.90;;;;;;4397810;32;20209;-71
2022/03/11 07:08:28;;;;;;;21.20;7.43;;;-3.30;99.90;;;;;;4397836;32;20601;-72
2022/03/11 07:10:55;;;;;;;18.67;7.20;;;-3.20;99.90;;;;;;4397504;32;20183;-72
2022/03/11 07:13:22;;;;;;;18.13;7.20;;;-3.20;99.90;;;;;;4397508;32;20190;-71
2022/03/11 07:15:49;;;;;;;17.10;7.13;;;-3.10;99.90;;;;;;4397091;32;20187;-72
2022/03/11 07:18:17;;;;;;;11.87;6.40;;;-3.00;99.90;;;;;;4396443;32;20189;-72
2022/03/11 07:20:43;;;;;;;14.50;6.77;;;-3.00;99.90;;;;;;4395964;32;20199;-73
2022/03/11 07:23:25;;;;;;;15.63;7.10;;;-2.90;99.90;;;;;;4411523;32;20166;-74
2022/03/11 07:25:53;;;;;;;15.60;6.97;;;-2.80;99.90;;;;;;4395418;32;20187;-73
2022/03/11 07:28:20;;;;;;;14.93;6.60;;;-2.60;99.90;;;;;;4395414;32;20246;-73
2022/03/11 07:30:48;;;;;;;14.83;6.30;;;-2.50;99.90;;;;;;4409453;32;20174;-73
2022/03/11 07:33:15;;;;;;;14.17;6.57;;;-2.40;99.10;;;;;;4395406;32;20170;-74
2022/03/11 07:35:42;;;;;;;14.20;6.70;;;-2.40;95.90;;;;;;4394883;32;20193;-72
2022/03/11 07:38:09;;;;;;;19.07;6.70;;;-2.40;95.90;;;;;;4396207;32;20213;-70
2022/03/11 07:40:35;;;;;;;14.50;6.07;;;-2.30;95.60;;;;;;4408982;32;20174;-72
2022/03/11 07:43:03;;;;;;;14.33;6.37;;;-2.20;93.80;;;;;;4396639;32;20180;-71
2022/03/11 07:45:30;;;;;;;14.33;6.20;;;-2.20;92.40;;;;;;4395105;32;20171;-72
2022/03/11 07:47:57;;;;;;;15.23;6.30;;;-2.10;91.60;;;;;;4395117;32;20221;-71
2022/03/11 07:50:24;;;;;;;16.20;6.37;;;-2.00;91.60;;;;;;4394515;32;20175;-72
2022/03/11 07:52:51;;;;;;;13.60;6.50;;;-2.00;91.10;;;;;;4409174;32;20143;-71
2022/03/11 07:55:18;;;;;;;14.60;6.43;;;-1.90;90.50;;;;;;4394975;32;20175;-70
2022/03/11 07:57:45;;;;;;;15.33;6.63;;;-1.80;88.70;;;;;;4395794;32;20205;-71
2022/03/11 08:00:13;;;;;;;13.03;6.50;;;-1.70;88.30;;;;;;4395553;32;20202;-72
2022/03/11 08:02:40;;;;;;;14.93;6.60;;;-1.60;91.30;;;;;;4395829;32;20167;-71
2022/03/11 08:05:14;;;;;;;16.70;6.23;;;-1.60;90.10;;;;;;4396041;32;20274;-71
2022/03/11 08:07:48;;;;;;;13.03;6.57;;;-1.50;88.10;;;;;;4396058;32;20193;-72
2022/03/11 08:10:19;;;;;;;14.63;6.37;;;-1.40;87.70;;;;;;4410092;32;20244;-71
2022/03/11 08:12:46;;;;;;;19.40;6.47;;;-1.30;86.50;;;;;;4395096;32;20218;-74
2022/03/11 08:15:13;;;;;;;13.57;6.20;;;-1.20;84.60;;;;;;4397119;32;20221;-75
2022/03/11 08:17:40;;;;;;;15.13;6.10;;;-1.10;84.10;;;;;;4396327;32;20236;-73
2022/03/11 08:20:09;;;;;;;12.67;6.20;;;-1.00;84.00;;;;;;4394549;32;20175;-71
2022/03/11 08:22:36;;;;;;;14.57;5.80;;;-0.60;83.00;;;;;;4410240;32;20396;-71
2022/03/11 08:25:04;;;;;;;15.67;6.00;;;0.20;78.90;;;;;;4395141;32;20244;-72
2022/03/11 08:27:31;;;;;;;10.47;5.07;;;1.10;73.60;;;;;;4394535;32;20461;-71
2022/03/11 08:29:58;;;;;;;10.73;5.17;;;1.90;66.10;;;;;;4394990;32;20215;-71
2022/03/11 08:32:28;;;;;;;9.17;4.60;;;2.50;63.10;;;;;;4394494;32;20202;-72
2022/03/11 08:34:56;;;;;;;12.77;4.97;;;3.00;61.70;;;;;;4409610;32;20193;-71
2022/03/11 08:37:32;;;;;;;9.47;4.67;;;3.50;58.90;;;;;;4395307;32;20176;-70
2022/03/11 08:40:03;;;;;;;9.60;4.40;;;3.80;56.50;;;;;;4394414;32;20197;-71
2022/03/11 08:42:30;;;;;;;10.50;5.10;;;4.10;53.80;;;;;;4394451;32;20198;-72
2022/03/11 08:44:59;;;;;;;11.80;5.17;;;4.20;51.50;;;;;;4392015;32;20255;-73
2022/03/11 08:47:28;;;;;;;11.47;5.47;;;4.40;51.20;;;;;;4392380;32;20186;-73
2022/03/11 08:49:55;;;;;;;9.93;5.03;;;4.70;50.50;;;;;;4391703;32;20371;-71
2022/03/11 08:52:24;;;;;;;11.37;5.20;;;5.00;50.20;;;;;;4394098;32;20131;-71
2022/03/11 08:54:55;;;;;;;10.93;4.07;;;5.30;49.30;;;;;;4393221;32;20240;-72
2022/03/11 08:57:22;;;;;;;12.33;4.47;;;5.50;47.10;;;;;;4392958;32;20497;-72
2022/03/11 08:59:50;;;;;;;8.07;4.60;;;5.60;46.40;;;;;;4391730;32;20195;-71
2022/03/11 09:02:17;;;;;;;10.87;4.57;;;5.70;45.30;;;;;;4393640;32;20237;-71
2022/03/11 09:04:46;;;;;;;9.63;4.87;;;5.80;45.00;;;;;;4396427;32;20239;-71
2022/03/11 09:07:12;;;;;;;10.87;4.10;;;5.80;44.00;;;;;;4394822;32;20183;-71
2022/03/11 09:09:40;;;;;;;10.97;5.13;;;6.00;43.70;;;;;;4395513;32;20184;-71
2022/03/11 09:12:07;;;;;;;10.13;4.40;;;6.20;43.30;;;;;;4395273;32;20256;-72
2022/03/11 09:14:34;;;;;;;6.37;3.53;;;6.30;42.60;;;;;;4395009;32;20430;-71
2022/03/11 09:17:01;;;;;;;9.37;3.60;;;6.40;41.30;;;;;;4395722;32;20177;-72
2022/03/11 09:19:29;;;;;;;5.90;3.23;;;6.50;40.40;;;;;;4394816;32;20237;-72
2022/03/11 09:21:56;;;;;;;10.20;3.40;;;6.60;39.50;;;;;;4394734;32;20411;-72
2022/03/11 09:24:22;;;;;;;7.80;3.17;;;6.70;38.50;;;;;;4396285;32;20180;-73
2022/03/11 09:27:01;;;;;;;5.07;2.77;;;6.80;38.30;;;;;;4395969;32;20204;-73
2022/03/11 09:29:30;;;;;;;7.37;3.10;;;7.00;37.70;;;;;;4383868;32;20485;-67
2022/03/11 09:31:57;;;;;;;5.23;3.00;;;7.40;37.40;;;;;;4394403;32;20213;-69
2022/03/11 09:34:24;;;;;;;7.57;3.17;;;7.70;36.80;;;;;;4395099;32;20500;-68
2022/03/11 09:36:52;;;;;;;6.33;3.33;;;8.00;36.00;;;;;;4395180;32;20223;-68
2022/03/11 09:39:20;;;;;;;7.03;3.50;;;8.20;35.60;;;;;;4396067;32;20585;-69
2022/03/11 09:41:48;;;;;;;7.27;3.50;;;8.70;35.60;;;;;;4395653;32;20541;-68
2022/03/11 09:44:16;;;;;;;7.40;3.30;;;9.00;35.00;;;;;;4394569;32;20162;-68
2022/03/11 09:46:43;;;;;;;5.77;3.17;;;9.20;33.90;;;;;;4394151;32;20278;-67
2022/03/11 09:49:16;;;;;;;5.97;3.47;;;8.90;33.70;;;;;;4394874;32;20236;-69
2022/03/11 09:51:45;;;;;;;6.90;3.50;;;8.90;34.00;;;;;;4396228;32;20438;-69
2022/03/11 09:54:12;;;;;;;7.97;3.60;;;9.20;34.80;;;;;;4394454;32;20205;-71
2022/03/11 09:56:41;;;;;;;6.13;3.77;;;9.50;34.00;;;;;;4395634;32;20247;-67
2022/03/11 09:59:08;;;;;;;5.97;3.30;;;9.50;33.60;;;;;;4394194;32;20210;-68
2022/03/11 10:01:40;;;;;;;7.13;3.50;;;9.40;33.80;;;;;;4394367;32;20167;-68
2022/03/11 10:04:09;;;;;;;7.60;2.77;;;9.80;33.80;;;;;;4394313;32;20248;-69
2022/03/11 10:06:38;;;;;;;4.60;2.77;;;9.80;32.30;;;;;;4394693;32;20400;-69
2022/03/11 10:09:30;;;;;;;6.10;2.57;;;9.70;31.60;;;;;;4397431;32;20156;-67
2022/03/11 10:11:58;;;;;;;7.63;2.67;;;9.30;31.50;;;;;;4394179;32;20567;-68
2022/03/11 10:14:36;;;;;;;5.50;2.67;;;9.50;32.00;;;;;;4395025;32;20248;-68
2022/03/11 10:17:17;;;;;;;6.40;3.10;;;9.10;31.60;;;;;;4393822;32;20449;-68
2022/03/11 10:20:03;;;;;;;4.77;2.60;;;9.10;32.50;;;;;;4394788;32;20572;-68
2022/03/11 10:22:31;;;;;;;5.27;2.67;;;9.20;32.80;;;;;;4394211;32;20158;-67
2022/03/11 10:25:20;;;;;;;6.73;2.70;;;8.90;32.20;;;;;;4394314;32;20169;-67
2022/03/11 10:28:09;;;;;;;5.57;2.70;;;9.40;32.60;;;;;;4394316;32;20171;-68
2022/03/11 10:30:42;;;;;;;3.70;2.30;;;9.50;32.40;;;;;;4393822;32;20229;-67
2022/03/11 10:33:12;;;;;;;5.33;2.70;;;9.60;32.20;;;;;;4393814;32;20218;-67
2022/03/11 10:35:47;;;;;;;5.10;2.80;;;10.10;32.20;;;;;;4395098;32;20218;-66
2022/03/11 10:38:20;;;;;;;5.67;2.70;;;10.30;31.70;;;;;;4395735;32;20237;-68
2022/03/11 10:40:56;;;;;;;6.30;2.70;;;10.50;31.60;;;;;;4393548;32;20441;-69
2022/03/11 10:43:32;;;;;;;5.50;2.23;;;10.60;31.40;;;;;;4395423;32;20182;-68
2022/03/11 10:46:02;;;;;;;5.20;2.30;;;11.00;31.10;;;;;;4393653;32;20245;-66
2022/03/11 10:48:49;;;;;;;6.47;2.77;;;11.30;30.40;;;;;;4394128;32;20167;-69
2022/03/11 10:51:20;;;;;;;5.37;2.50;;;11.70;30.50;;;;;;4394468;32;20203;-68
2022/03/11 10:53:49;;;;;;;4.50;2.60;;;12.00;30.30;;;;;;4393319;32;20171;-68
2022/03/11 10:56:34;;;;;;;4.30;2.70;;;11.90;29.80;;;;;;4392984;32;20176;-67
2022/03/11 10:59:06;;;;;;;4.77;2.47;;;11.80;29.90;;;;;;4394791;32;20281;-67
2022/03/11 11:01:38;;;;;;;4.87;2.80;;;11.70;29.80;;;;;;4394810;32;20164;-68
2022/03/11 11:04:07;;;;;;;4.27;2.53;;;12.00;29.90;;;;;;4394469;32;20158;-67
2022/03/11 11:06:37;;;;;;;6.43;2.80;;;12.60;29.80;;;;;;4394328;32;20196;-68
2022/03/11 11:09:06;;;;;;;5.53;3.17;;;13.00;29.30;;;;;;4393082;32;20195;-68
2022/03/11 11:11:34;;;;;;;6.20;2.93;;;13.10;29.00;;;;;;4394166;32;20179;-68
2022/03/11 11:14:07;;;;;;;5.50;2.90;;;13.30;28.90;;;;;;4395149;32;20162;-70
2022/03/11 11:16:40;;;;;;;6.23;2.83;;;13.20;28.40;;;;;;4394813;32;20167;-67
2022/03/11 11:19:09;;;;;;;5.80;3.20;;;12.50;28.50;;;;;;4394793;32;20167;-68
2022/03/11 11:21:39;;;;;;;5.67;3.27;;;12.40;29.50;;;;;;4393159;32;20186;-68
2022/03/11 11:24:12;;;;;;;6.23;3.10;;;12.70;29.40;;;;;;4396094;32;20162;-68
2022/03/11 11:26:40;;;;;;;4.70;2.90;;;12.60;29.60;;;;;;4393218;32;20219;-70
2022/03/11 11:29:08;;;;;;;5.17;3.00;;;12.70;29.40;;;;;;4393539;32;20602;-68
2022/03/11 11:31:36;;;;;;;5.50;2.90;;;12.70;29.50;;;;;;4394575;32;20166;-67
2022/03/11 11:34:03;;;;;;;5.80;2.40;;;13.40;29.10;;;;;;4393756;32;20528;-70
2022/03/11 11:36:40;;;;;;;5.83;2.80;;;13.80;28.50;;;;;;4394666;32;20206;-69
2022/03/11 11:39:08;;;;;;;5.80;2.80;;;14.30;27.90;;;;;;4392757;32;20270;-69
2022/03/11 11:41:35;;;;;;;5.50;3.10;;;14.70;27.70;;;;;;4393107;32;20198;-71
2022/03/11 11:44:06;;;;;;;7.07;2.87;;;15.10;27.70;;;;;;4393404;32;20182;-71
2022/03/11 11:46:36;;;;;;;5.13;2.67;;;15.30;27.40;;;;;;4390348;32;20221;-71
2022/03/11 11:49:16;;;;;;;5.40;2.70;;;15.90;27.30;;;;;;4392446;32;20593;-70
2022/03/11 11:51:42;;;;;;;5.27;2.60;;;16.60;26.80;;;;;;4394184;32;20155;-69
2022/03/11 11:54:11;;;;;;;6.77;2.80;;;17.70;26.30;;;;;;4392337;32;20252;-70
2022/03/11 11:56:55;;;;;;;5.77;2.63;;;18.40;25.50;;;;;;4392871;32;20175;-69
2022/03/11 11:59:26;;;;;;;6.60;3.00;;;18.80;24.60;;;;;;4394359;32;20882;-69
2022/03/11 12:01:56;;;;;;;4.90;2.80;;;18.50;24.20;;;;;;4393851;32;20552;-70
2022/03/11 12:04:32;;;;;;;4.93;2.70;;;18.60;24.20;;;;;;4393116;32;20212;-68
2022/03/11 12:07:02;;;;;;;5.30;3.07;;;19.20;23.90;;;;;;4393866;32;20509;-68
2022/03/11 12:10:01;;;;;;;6.03;3.03;;;19.70;24.00;;;;;;4392391;32;20274;-69
2022/03/11 12:12:25;;;;;;;5.20;3.10;;;19.40;23.30;;;;;;4395729;32;20235;-67
2022/03/11 12:14:59;;;;;;;5.20;3.00;;;19.10;24.10;;;;;;4393816;32;20195;-68
2022/03/11 12:17:58;;;;;;;6.17;3.10;;;19.10;23.60;;;;;;4393727;32;20167;-70
2022/03/11 12:20:26;;;;;;;4.43;2.80;;;19.20;23.60;;;;;;4347359;33;20203;-69
2022/03/11 12:23:08;;;;;;;6.33;2.60;;;19.20;23.60;;;;;;4335793;33;20248;-69
2022/03/11 12:25:36;;;;;;;4.67;2.60;;;19.50;23.40;;;;;;4346369;33;20613;-69
2022/03/11 12:28:29;;;;;;;5.37;2.60;;;19.40;23.30;;;;;;4334152;33;20203;-68
2022/03/11 12:31:09;;;;;;;5.50;2.93;;;19.00;23.20;;;;;;4347592;33;20156;-68
2022/03/11 12:33:42;;;;;;;3.97;2.30;;;19.40;23.70;;;;;;4335403;33;20168;-69
2022/03/11 12:36:22;;;;;;;4.37;2.57;;;19.60;23.30;;;;;;4335229;33;20207;-68
2022/03/11 12:38:51;;;;;;;5.03;2.43;;;20.10;23.20;;;;;;4334417;33;20495;-69
2022/03/11 12:41:32;;;;;;;4.87;2.30;;;20.50;23.00;;;;;;4333783;33;20534;-69
2022/03/11 12:44:00;;;;;;;5.67;2.40;;;20.90;22.60;;;;;;4334612;33;20196;-68
2022/03/11 12:46:27;;;;;;;3.97;2.50;;;21.10;22.40;;;;;;4333606;33;20172;-69